Terminal Aerodrome Forecast
Issued by NWS Austin/San Antonio, TX

Home | Current Version | Previous Version | Text Only | Print | Product List | Glossary On
Versions: 1 2 3 4 5 6 7 8 9 10 11 12 13 14 15 16 17 18 19 20
000
FTUS44 KEWX 211100 RRA
TAFDRT
TAF
KDRT 211141Z 2112/2212 11005KT 1/2SM FG VV002
      TEMPO 2112/2114 1/4SM FG
     FM211400 10004KT 1 1/2SM BR OVC004
     FM211500 10005KT 4SM BR OVC007
     FM211600 14006KT P6SM BKN012
     FM211800 14011KT P6SM SCT025 BKN040=

USA.gov is the U.S. government's official web portal to all federal, state and local government web resources and services.